Time;durP1;ratioP1;P1;durP2;ratioP2;P2;SDS_P1;SDS_P2;PMS_P1;PMS_P2;Temp;Humidity;BMP_temperature;BMP_pressure;BME280_temperature;BME280_humidity;BME280_pressure;Samples;Min_cycle;Max_cycle;Signal;HPM_P1;HPM_P2
2023/03/16 00:02:20;;;;;;;3.30;2.20;;;1.40;98.00;;;;;;5073965;28;20505;-68
2023/03/16 00:04:47;;;;;;;4.20;2.60;;;1.40;98.00;;;;;;5073832;28;20461;-69
2023/03/16 00:07:15;;;;;;;5.10;2.30;;;1.40;98.00;;;;;;5073898;28;20493;-68
2023/03/16 00:09:42;;;;;;;5.00;2.70;;;1.30;98.00;;;;;;5073803;28;20460;-68
2023/03/16 00:12:14;;;;;;;3.20;2.27;;;1.30;98.00;;;;;;5073844;28;20449;-68
2023/03/16 00:14:42;;;;;;;3.67;2.40;;;1.20;98.00;;;;;;5073904;28;20936;-69
2023/03/16 00:17:17;;;;;;;5.63;2.80;;;1.20;98.00;;;;;;5073948;28;20854;-69
2023/03/16 00:19:47;;;;;;;3.90;2.93;;;1.30;98.00;;;;;;5073632;28;21081;-69
2023/03/16 00:22:15;;;;;;;5.47;3.47;;;1.20;98.00;;;;;;5074089;28;20464;-68
2023/03/16 00:24:43;;;;;;;5.93;2.90;;;1.10;98.00;;;;;;5073872;28;20449;-68
2023/03/16 00:27:13;;;;;;;4.83;2.60;;;1.10;98.00;;;;;;5073680;28;20457;-68
2023/03/16 00:29:45;;;;;;;4.00;3.17;;;1.10;98.00;;;;;;5073700;28;20465;-68
2023/03/16 00:32:17;;;;;;;6.50;3.57;;;1.20;98.00;;;;;;5073918;28;20481;-69
2023/03/16 00:34:46;;;;;;;4.20;3.30;;;1.10;98.00;;;;;;5073363;28;20507;-68
2023/03/16 00:37:18;;;;;;;6.17;2.20;;;1.00;98.00;;;;;;5073302;28;20465;-69
2023/03/16 00:39:46;;;;;;;6.57;2.53;;;1.00;98.00;;;;;;5072896;28;20493;-68
2023/03/16 00:42:16;;;;;;;5.67;3.17;;;1.00;98.00;;;;;;5073304;28;20825;-69
2023/03/16 00:44:43;;;;;;;4.00;2.63;;;0.90;98.00;;;;;;5073251;28;20456;-68
2023/03/16 00:47:14;;;;;;;7.10;3.10;;;0.90;98.00;;;;;;5072938;28;20941;-69
2023/03/16 00:49:42;;;;;;;3.43;2.53;;;1.00;98.00;;;;;;5072945;28;20531;-68
2023/03/16 00:52:13;;;;;;;5.10;3.00;;;1.00;98.00;;;;;;5072814;28;20465;-68
2023/03/16 00:54:45;;;;;;;4.23;3.30;;;1.00;98.00;;;;;;5072965;28;20496;-69
2023/03/16 00:57:15;;;;;;;8.90;4.17;;;1.00;98.00;;;;;;5072991;28;20444;-69
2023/03/16 00:59:42;;;;;;;6.63;3.10;;;1.10;98.00;;;;;;5073008;28;20463;-68
2023/03/16 01:02:10;;;;;;;3.93;2.63;;;1.20;98.00;;;;;;5072662;28;20461;-68
2023/03/16 01:04:38;;;;;;;5.57;3.00;;;1.20;98.00;;;;;;5073074;28;20468;-68
2023/03/16 01:07:06;;;;;;;4.97;2.73;;;1.10;98.00;;;;;;5072667;28;20465;-68
2023/03/16 01:09:35;;;;;;;4.27;2.80;;;1.00;98.00;;;;;;5072694;28;20456;-69
2023/03/16 01:12:05;;;;;;;2.90;1.83;;;0.90;98.00;;;;;;5072813;28;20524;-68
2023/03/16 01:14:33;;;;;;;5.37;3.17;;;1.00;98.00;;;;;;5073098;28;20542;-69
2023/03/16 01:17:01;;;;;;;3.37;2.50;;;0.90;98.00;;;;;;5072677;28;20449;-69
2023/03/16 01:19:28;;;;;;;4.43;2.97;;;0.90;98.00;;;;;;5072719;28;20915;-68
2023/03/16 01:21:55;;;;;;;3.63;2.63;;;0.90;98.00;;;;;;5072739;28;20461;-69
2023/03/16 01:24:23;;;;;;;6.13;2.57;;;0.90;98.00;;;;;;5072743;28;20458;-68
2023/03/16 01:26:53;;;;;;;7.63;2.70;;;0.80;98.00;;;;;;5054839;28;20449;-69
2023/03/16 01:29:20;;;;;;;3.23;1.93;;;0.80;98.00;;;;;;5072623;28;20463;-68
2023/03/16 01:31:48;;;;;;;2.73;2.57;;;0.70;98.00;;;;;;5072319;28;20484;-69
2023/03/16 01:34:17;;;;;;;4.67;2.77;;;0.60;98.00;;;;;;5072265;28;20489;-68
2023/03/16 01:36:44;;;;;;;4.13;3.20;;;0.60;98.00;;;;;;5072242;28;20449;-69
2023/03/16 01:39:12;;;;;;;4.43;2.77;;;0.50;98.00;;;;;;5072010;28;20456;-69
2023/03/16 01:41:41;;;;;;;2.97;2.17;;;0.50;98.00;;;;;;5072344;28;20457;-69
2023/03/16 01:44:12;;;;;;;6.37;3.40;;;0.60;98.00;;;;;;5071937;28;20491;-69
2023/03/16 01:46:40;;;;;;;11.33;3.77;;;0.60;98.00;;;;;;5072045;28;20453;-68
2023/03/16 01:49:12;;;;;;;3.00;2.50;;;0.70;98.00;;;;;;5071468;28;20468;-68
2023/03/16 01:51:45;;;;;;;3.07;2.00;;;0.90;98.00;;;;;;5071939;28;20489;-69
2023/03/16 01:54:21;;;;;;;6.77;2.67;;;0.90;98.00;;;;;;5072097;28;20459;-68
2023/03/16 01:56:54;;;;;;;3.53;2.67;;;0.90;98.00;;;;;;5071945;28;20459;-68
2023/03/16 01:59:26;;;;;;;5.17;3.00;;;0.80;98.00;;;;;;5072036;28;20448;-68
2023/03/16 02:01:53;;;;;;;4.97;3.33;;;0.80;98.00;;;;;;5072019;28;20529;-68
2023/03/16 02:04:44;;;;;;;3.83;2.53;;;0.80;98.00;;;;;;5054474;28;20456;-68
2023/03/16 02:07:21;;;;;;;4.13;2.53;;;0.80;98.00;;;;;;5071893;28;20458;-68
2023/03/16 02:09:51;;;;;;;4.33;2.80;;;0.90;98.00;;;;;;5072006;28;20525;-68
2023/03/16 02:12:19;;;;;;;2.97;2.40;;;0.90;98.00;;;;;;5072159;28;20875;-68
2023/03/16 02:14:49;;;;;;;2.80;2.43;;;0.80;98.00;;;;;;5072110;28;20467;-68
2023/03/16 02:17:19;;;;;;;3.27;2.10;;;0.70;98.00;;;;;;5072062;28;20456;-68
2023/03/16 02:19:53;;;;;;;5.43;2.30;;;0.60;98.00;;;;;;5072151;28;20460;-68
2023/03/16 02:22:23;;;;;;;3.33;2.00;;;0.60;98.00;;;;;;5072010;28;20460;-69
2023/03/16 02:24:52;;;;;;;2.23;2.03;;;0.60;98.00;;;;;;5072127;28;20459;-68
2023/03/16 02:27:31;;;;;;;7.10;3.30;;;0.70;98.00;;;;;;5071774;28;20946;-68
2023/03/16 02:30:06;;;;;;;5.80;2.80;;;0.70;98.00;;;;;;5071655;28;20461;-68
2023/03/16 02:32:35;;;;;;;2.73;2.53;;;0.70;98.00;;;;;;5071767;28;20455;-69
2023/03/16 02:35:04;;;;;;;1.97;1.83;;;0.80;98.00;;;;;;5071613;28;20449;-68
2023/03/16 02:37:33;;;;;;;3.00;2.17;;;0.80;98.00;;;;;;5071556;28;20452;-69
2023/03/16 02:40:01;;;;;;;4.20;2.80;;;1.00;98.00;;;;;;5071575;28;20900;-69
2023/03/16 02:42:30;;;;;;;4.03;2.37;;;0.90;98.00;;;;;;5071330;28;20454;-68
2023/03/16 02:44:59;;;;;;;5.40;3.20;;;0.90;98.00;;;;;;5071392;28;20891;-68
2023/03/16 02:47:34;;;;;;;3.90;2.63;;;0.90;98.00;;;;;;5071405;28;20804;-68
2023/03/16 02:50:05;;;;;;;7.43;3.60;;;1.10;98.00;;;;;;5071446;28;20456;-69
2023/03/16 02:52:32;;;;;;;3.03;2.37;;;1.00;98.00;;;;;;5071298;28;20898;-68
2023/03/16 02:54:59;;;;;;;4.70;2.50;;;0.90;98.00;;;;;;5070929;28;20452;-68
2023/03/16 02:57:27;;;;;;;4.60;2.57;;;0.80;98.00;;;;;;5071419;28;20453;-68
2023/03/16 02:59:54;;;;;;;4.40;2.90;;;0.70;98.00;;;;;;5071765;28;20453;-68
2023/03/16 03:02:21;;;;;;;2.83;2.43;;;0.70;98.00;;;;;;5074440;28;20827;-68
2023/03/16 03:04:53;;;;;;;6.70;3.03;;;0.60;98.00;;;;;;5075176;28;20941;-68
2023/03/16 03:07:31;;;;;;;3.40;2.00;;;0.60;98.00;;;;;;5074557;28;20452;-68
2023/03/16 03:09:58;;;;;;;2.60;2.50;;;0.60;98.00;;;;;;5075149;28;20458;-68
2023/03/16 03:12:25;;;;;;;3.87;3.07;;;0.30;98.00;;;;;;5057255;28;20976;-68
2023/03/16 03:14:56;;;;;;;3.63;2.50;;;0.20;98.00;;;;;;5075098;28;20452;-68
2023/03/16 03:17:28;;;;;;;6.67;3.00;;;0.20;98.00;;;;;;5075111;28;20453;-68
2023/03/16 03:19:57;;;;;;;3.57;3.00;;;0.10;98.00;;;;;;5075027;28;20764;-69
2023/03/16 03:22:25;;;;;;;5.27;2.97;;;0.00;98.00;;;;;;5075183;28;20980;-68
2023/03/16 03:24:53;;;;;;;3.00;2.47;;;0.00;98.00;;;;;;5074839;28;20938;-68
2023/03/16 03:27:21;;;;;;;5.63;2.43;;;0.20;98.00;;;;;;5074719;28;20452;-68
2023/03/16 03:29:48;;;;;;;4.03;2.67;;;0.20;98.00;;;;;;5074513;28;20457;-68
2023/03/16 03:32:15;;;;;;;3.17;2.57;;;0.30;98.00;;;;;;5074886;28;20584;-69
2023/03/16 03:34:42;;;;;;;5.50;2.47;;;0.40;98.00;;;;;;5074553;28;20485;-68
2023/03/16 03:37:11;;;;;;;2.63;2.23;;;0.50;98.00;;;;;;5074673;28;20926;-68
2023/03/16 03:39:39;;;;;;;6.80;2.83;;;0.60;98.00;;;;;;5074444;28;20849;-68
2023/03/16 03:42:07;;;;;;;3.00;1.83;;;0.60;98.00;;;;;;5074254;28;20491;-68
2023/03/16 03:44:34;;;;;;;3.30;1.90;;;0.50;98.00;;;;;;5074507;28;20464;-68
2023/03/16 03:47:02;;;;;;;3.23;2.33;;;0.30;98.00;;;;;;5074347;28;20448;-68
2023/03/16 03:49:29;;;;;;;3.13;2.97;;;0.30;98.00;;;;;;5074205;28;20980;-68
2023/03/16 03:51:58;;;;;;;2.93;2.30;;;0.20;98.00;;;;;;5073648;28;20565;-68
2023/03/16 03:54:27;;;;;;;5.13;2.77;;;0.20;98.00;;;;;;5074033;28;20456;-68
2023/03/16 03:56:54;;;;;;;7.03;3.20;;;0.10;98.00;;;;;;5074079;28;20460;-68
2023/03/16 03:59:22;;;;;;;4.23;2.67;;;0.20;98.00;;;;;;5074043;28;20461;-68
2023/03/16 04:01:52;;;;;;;2.30;1.70;;;0.30;98.00;;;;;;5074141;28;20488;-68
2023/03/16 04:04:19;;;;;;;3.10;2.43;;;0.40;98.00;;;;;;5073983;28;20456;-68
2023/03/16 04:06:46;;;;;;;3.77;2.03;;;0.40;98.00;;;;;;5073922;28;20456;-69
2023/03/16 04:09:15;;;;;;;10.23;3.00;;;0.40;98.00;;;;;;5073808;28;20445;-68
2023/03/16 04:11:44;;;;;;;5.73;2.50;;;0.50;98.00;;;;;;5073176;28;20489;-68
2023/03/16 04:14:12;;;;;;;5.80;2.93;;;0.30;98.00;;;;;;5072352;28;20464;-68
2023/03/16 04:16:39;;;;;;;3.10;2.60;;;0.10;98.00;;;;;;5073433;28;20811;-69
2023/03/16 04:19:06;;;;;;;4.60;2.70;;;0.10;98.00;;;;;;5074092;28;20453;-69
2023/03/16 04:21:33;;;;;;;2.23;2.03;;;0.10;98.00;;;;;;5074013;28;20724;-68
2023/03/16 04:24:03;;;;;;;2.40;1.60;;;0.20;98.00;;;;;;5073539;28;20461;-68
2023/03/16 04:26:30;;;;;;;3.80;3.10;;;0.10;98.00;;;;;;5073433;28;20453;-68
2023/03/16 04:29:03;;;;;;;1.67;1.57;;;0.20;98.00;;;;;;5073354;28;20453;-68
2023/03/16 04:31:30;;;;;;;2.57;1.90;;;0.30;98.00;;;;;;5073645;28;20914;-68
2023/03/16 04:33:57;;;;;;;8.07;3.43;;;0.10;98.00;;;;;;5073262;28;20456;-68
2023/03/16 04:36:25;;;;;;;4.10;2.70;;;0.10;98.00;;;;;;5073758;28;20993;-68
2023/03/16 04:39:01;;;;;;;3.93;2.23;;;-0.10;98.00;;;;;;5073285;28;20888;-68
2023/03/16 04:41:28;;;;;;;5.73;2.93;;;-0.20;98.00;;;;;;5073303;28;20823;-68
2023/03/16 04:43:56;;;;;;;6.03;3.13;;;-0.20;98.00;;;;;;5073165;28;20448;-68
2023/03/16 04:46:26;;;;;;;2.40;2.20;;;-0.10;98.00;;;;;;5073151;28;20471;-68
2023/03/16 04:48:57;;;;;;;5.57;3.33;;;0.00;98.00;;;;;;5073089;28;20506;-68
2023/03/16 04:51:24;;;;;;;4.43;2.27;;;0.00;98.00;;;;;;5073250;28;20484;-68
2023/03/16 04:53:51;;;;;;;3.40;1.97;;;0.10;98.00;;;;;;5072529;28;20467;-68
2023/03/16 04:56:18;;;;;;;3.83;2.53;;;0.00;98.00;;;;;;5073011;28;20456;-68
2023/03/16 04:58:46;;;;;;;2.33;2.00;;;-0.10;98.00;;;;;;5072953;28;20836;-68
2023/03/16 05:01:15;;;;;;;5.00;3.20;;;-0.20;98.00;;;;;;5072909;28;20453;-68
2023/03/16 05:03:45;;;;;;;5.70;3.27;;;-0.20;98.00;;;;;;5072885;28;20860;-69
2023/03/16 05:06:12;;;;;;;3.70;2.40;;;-0.20;98.00;;;;;;5073019;28;20475;-68
2023/03/16 05:08:40;;;;;;;4.43;2.90;;;-0.10;98.00;;;;;;5072733;28;20445;-68
2023/03/16 05:11:08;;;;;;;4.70;2.40;;;-0.20;98.00;;;;;;5072759;28;20544;-68
2023/03/16 05:13:35;;;;;;;4.60;3.07;;;-0.30;98.00;;;;;;5073061;28;20481;-69
2023/03/16 05:16:03;;;;;;;3.60;2.17;;;-0.30;98.00;;;;;;5055157;28;20475;-68
2023/03/16 05:18:32;;;;;;;5.27;3.27;;;-0.20;98.00;;;;;;5072997;28;20463;-68
2023/03/16 05:21:01;;;;;;;6.93;2.90;;;-0.20;98.00;;;;;;5055540;28;20484;-68
2023/03/16 05:23:28;;;;;;;4.37;2.20;;;-0.10;98.00;;;;;;5072759;28;20457;-68
2023/03/16 05:25:58;;;;;;;4.30;2.07;;;-0.10;98.00;;;;;;5072875;28;20505;-68
2023/03/16 05:28:25;;;;;;;3.13;2.00;;;0.00;98.00;;;;;;5072308;28;20530;-68
2023/03/16 05:30:52;;;;;;;5.53;3.00;;;0.00;98.00;;;;;;5072691;28;21006;-68
2023/03/16 05:33:20;;;;;;;5.27;2.60;;;0.10;98.00;;;;;;5072058;28;20481;-68
2023/03/16 05:35:49;;;;;;;2.47;1.97;;;0.00;98.00;;;;;;5072016;28;20456;-68
2023/03/16 05:38:18;;;;;;;4.90;2.80;;;-0.10;98.00;;;;;;5072328;28;21039;-69
2023/03/16 05:40:51;;;;;;;7.70;3.43;;;-0.10;98.00;;;;;;5072050;28;20471;-68
2023/03/16 05:43:20;;;;;;;2.10;2.00;;;0.00;98.00;;;;;;5071991;28;20448;-68
2023/03/16 05:45:47;;;;;;;5.70;2.77;;;0.10;98.00;;;;;;5071946;28;20456;-68
2023/03/16 05:48:15;;;;;;;5.33;2.90;;;0.10;98.00;;;;;;5072060;28;20457;-68
2023/03/16 05:50:42;;;;;;;14.83;3.53;;;0.10;98.00;;;;;;5071969;28;20456;-68
2023/03/16 05:53:09;;;;;;;3.53;2.77;;;0.20;98.00;;;;;;5071944;28;20484;-68
2023/03/16 05:55:39;;;;;;;2.50;2.10;;;0.30;98.00;;;;;;5054311;28;20453;-68
2023/03/16 05:58:07;;;;;;;4.37;3.37;;;0.30;98.00;;;;;;5072069;28;20456;-68
2023/03/16 06:00:34;;;;;;;3.37;2.50;;;0.30;98.00;;;;;;5054566;28;20460;-68
2023/03/16 06:03:02;;;;;;;3.23;2.00;;;0.20;98.00;;;;;;5071999;28;20449;-68
2023/03/16 06:05:30;;;;;;;6.80;2.33;;;0.00;98.00;;;;;;5072282;28;20484;-68
2023/03/16 06:07:58;;;;;;;5.00;2.90;;;0.00;98.00;;;;;;5071924;28;20460;-68
2023/03/16 06:10:26;;;;;;;4.43;2.40;;;0.00;98.00;;;;;;5072071;28;20449;-68
2023/03/16 06:12:54;;;;;;;3.60;2.80;;;0.20;98.00;;;;;;5071892;28;21041;-68
2023/03/16 06:15:23;;;;;;;3.60;2.70;;;0.30;98.00;;;;;;5072117;28;20464;-69
2023/03/16 06:17:51;;;;;;;4.47;3.30;;;0.30;98.00;;;;;;5071891;28;20460;-69
2023/03/16 06:20:19;;;;;;;5.00;3.37;;;0.30;98.00;;;;;;5072357;28;21007;-68
2023/03/16 06:22:46;;;;;;;5.30;2.83;;;0.40;98.00;;;;;;5071602;28;20459;-68
2023/03/16 06:25:14;;;;;;;4.40;2.70;;;0.30;98.00;;;;;;5072007;28;20460;-68
2023/03/16 06:27:42;;;;;;;3.47;1.70;;;0.40;98.00;;;;;;5071784;28;20461;-68
2023/03/16 06:30:13;;;;;;;3.40;2.23;;;0.40;98.00;;;;;;5071586;28;20807;-68
2023/03/16 06:32:41;;;;;;;3.27;2.43;;;0.50;98.00;;;;;;5071682;28;20524;-67
2023/03/16 06:35:10;;;;;;;7.63;3.30;;;0.50;98.00;;;;;;5071700;28;20496;-68
2023/03/16 06:37:37;;;;;;;3.20;2.90;;;0.50;98.00;;;;;;5075303;28;20460;-67
2023/03/16 06:40:07;;;;;;;3.27;2.80;;;0.60;98.00;;;;;;5075510;28;20547;-68
2023/03/16 06:42:34;;;;;;;5.90;3.70;;;0.70;98.00;;;;;;5075877;28;21052;-68
2023/03/16 06:45:01;;;;;;;4.23;3.23;;;0.80;98.00;;;;;;5075611;28;20824;-68
2023/03/16 06:47:30;;;;;;;4.67;2.90;;;0.70;98.00;;;;;;5075537;28;20465;-68
2023/03/16 06:49:58;;;;;;;6.40;2.77;;;0.70;98.00;;;;;;5075417;28;20856;-69
2023/03/16 06:52:25;;;;;;;5.93;3.13;;;0.90;98.00;;;;;;5075230;28;20574;-69
2023/03/16 06:54:52;;;;;;;5.77;3.13;;;0.90;98.00;;;;;;5075368;28;20456;-69
2023/03/16 06:57:19;;;;;;;9.93;3.40;;;0.90;98.00;;;;;;5075172;28;20456;-69
2023/03/16 06:59:46;;;;;;;7.53;3.43;;;0.90;98.00;;;;;;5057474;28;20461;-68
2023/03/16 07:02:14;;;;;;;4.07;2.57;;;1.00;98.00;;;;;;5075255;28;20557;-64
2023/03/16 07:04:42;;;;;;;6.47;3.07;;;1.00;98.00;;;;;;5075195;28;20463;-65
2023/03/16 07:07:10;;;;;;;6.10;3.10;;;1.00;98.00;;;;;;5075366;28;20456;-64
2023/03/16 07:09:38;;;;;;;5.00;2.50;;;1.10;98.00;;;;;;5075166;28;20982;-64
2023/03/16 07:12:08;;;;;;;4.53;2.60;;;1.20;98.00;;;;;;5074676;28;20490;-64
2023/03/16 07:14:37;;;;;;;4.53;2.83;;;1.20;98.00;;;;;;5075450;28;20985;-64
2023/03/16 07:17:06;;;;;;;7.17;2.67;;;1.20;98.00;;;;;;5057509;28;20813;-64
2023/03/16 07:19:33;;;;;;;4.50;3.10;;;1.20;98.00;;;;;;5075097;28;20457;-64
2023/03/16 07:22:02;;;;;;;4.17;2.60;;;1.30;98.00;;;;;;5057393;28;20456;-64
2023/03/16 07:24:30;;;;;;;3.63;2.63;;;1.30;98.00;;;;;;5074836;28;20459;-64
2023/03/16 07:26:57;;;;;;;3.23;2.20;;;1.40;98.00;;;;;;5074659;28;21005;-65
2023/03/16 07:29:25;;;;;;;5.00;3.30;;;1.30;98.00;;;;;;5074909;28;20460;-64
2023/03/16 07:31:53;;;;;;;5.30;3.17;;;1.50;98.00;;;;;;5074418;28;20488;-66
2023/03/16 07:34:23;;;;;;;5.40;2.70;;;1.60;98.00;;;;;;5074339;28;20548;-64
2023/03/16 07:36:51;;;;;;;9.87;4.20;;;1.60;98.00;;;;;;5074679;28;20966;-65
2023/03/16 07:42:01;;;;;;;3.53;2.90;;;1.70;98.00;;;;;;5074522;28;20464;-64
2023/03/16 07:44:28;;;;;;;4.90;3.10;;;1.80;98.00;;;;;;5074415;28;20547;-64
2023/03/16 07:46:55;;;;;;;4.53;3.40;;;1.90;98.00;;;;;;5073659;28;20456;-64
2023/03/16 07:49:22;;;;;;;7.73;4.00;;;2.00;98.00;;;;;;5074024;28;20456;-65
2023/03/16 07:51:51;;;;;;;6.00;2.70;;;2.10;98.00;;;;;;5074006;28;20457;-65
2023/03/16 07:54:20;;;;;;;4.33;3.50;;;2.30;98.00;;;;;;5074485;28;20797;-64
2023/03/16 07:56:47;;;;;;;4.30;3.30;;;2.40;98.00;;;;;;5074241;28;20468;-64
2023/03/16 07:59:14;;;;;;;5.70;2.80;;;2.50;98.00;;;;;;5074091;28;20457;-64
2023/03/16 08:01:42;;;;;;;3.57;2.10;;;2.70;98.00;;;;;;5074229;28;20460;-66
2023/03/16 08:04:11;;;;;;;3.60;2.00;;;2.80;98.00;;;;;;5074218;28;20454;-64
2023/03/16 08:06:39;;;;;;;4.27;2.23;;;3.10;98.00;;;;;;5074040;28;20964;-65
2023/03/16 08:09:06;;;;;;;4.20;2.70;;;3.20;98.00;;;;;;5074184;28;20457;-66
2023/03/16 08:11:35;;;;;;;9.40;2.97;;;3.40;98.00;;;;;;5074467;28;20458;-65
2023/03/16 08:14:02;;;;;;;2.77;2.37;;;3.60;98.00;;;;;;5073667;28;21160;-63
2023/03/16 08:16:30;;;;;;;6.30;2.37;;;3.80;98.00;;;;;;5074175;28;21015;-63
2023/03/16 08:18:58;;;;;;;4.27;2.47;;;3.90;98.00;;;;;;5073821;28;20517;-65
2023/03/16 08:21:35;;;;;;;3.93;2.70;;;4.00;98.00;;;;;;5074025;28;20462;-64
2023/03/16 08:24:02;;;;;;;4.13;2.20;;;4.20;98.00;;;;;;5057862;28;21113;-64
2023/03/16 08:26:29;;;;;;;4.90;2.17;;;4.30;98.00;;;;;;5073986;28;20504;-64
2023/03/16 08:29:02;;;;;;;3.27;2.10;;;4.50;98.00;;;;;;5073570;28;20550;-63
2023/03/16 08:31:33;;;;;;;5.47;2.60;;;4.60;98.00;;;;;;5073472;28;20460;-64
2023/03/16 08:34:01;;;;;;;3.13;2.70;;;4.80;98.00;;;;;;5073389;28;20988;-65
2023/03/16 08:36:29;;;;;;;7.30;4.27;;;4.90;98.00;;;;;;5073496;28;20450;-66
2023/03/16 08:38:59;;;;;;;3.00;2.13;;;5.10;98.00;;;;;;5056719;28;20563;-65
2023/03/16 08:41:29;;;;;;;8.20;3.27;;;5.20;98.00;;;;;;5053468;28;20543;-64
2023/03/16 08:43:57;;;;;;;2.50;1.87;;;5.30;98.00;;;;;;5051672;28;20593;-64
2023/03/16 08:46:26;;;;;;;4.27;2.50;;;5.50;98.00;;;;;;5053060;28;20491;-66
2023/03/16 08:48:54;;;;;;;3.20;2.33;;;5.60;98.00;;;;;;5053004;28;20452;-64
2023/03/16 08:51:22;;;;;;;4.53;2.70;;;5.80;98.00;;;;;;5052948;28;20455;-65
2023/03/16 08:53:49;;;;;;;4.40;2.50;;;5.90;98.00;;;;;;5052767;28;20490;-64
2023/03/16 08:56:16;;;;;;;2.43;1.80;;;6.10;98.00;;;;;;5053066;28;20470;-65
2023/03/16 08:58:44;;;;;;;5.23;2.30;;;6.30;98.00;;;;;;5052528;28;20850;-65
2023/03/16 09:01:13;;;;;;;3.10;2.00;;;6.40;98.00;;;;;;5053155;28;20544;-65
2023/03/16 09:03:44;;;;;;;5.47;2.63;;;6.60;98.00;;;;;;5052795;28;20461;-65
2023/03/16 09:06:13;;;;;;;10.60;2.77;;;6.70;98.00;;;;;;5052608;28;20460;-64
2023/03/16 09:08:40;;;;;;;3.37;2.00;;;6.90;98.00;;;;;;5052865;28;20465;-65
2023/03/16 09:11:14;;;;;;;3.90;2.57;;;7.00;98.00;;;;;;5052836;28;20468;-65
2023/03/16 09:13:43;;;;;;;4.07;2.60;;;7.10;98.00;;;;;;5052659;28;20495;-65
2023/03/16 09:16:12;;;;;;;4.00;2.60;;;7.30;98.00;;;;;;5036421;28;20507;-64
2023/03/16 09:18:41;;;;;;;4.70;2.03;;;7.40;98.00;;;;;;5031882;28;20454;-65
2023/03/16 09:21:12;;;;;;;3.30;2.53;;;7.50;98.00;;;;;;5033935;28;20451;-64
2023/03/16 09:23:40;;;;;;;6.23;2.90;;;7.60;98.00;;;;;;5052086;28;20461;-67
2023/03/16 09:26:08;;;;;;;8.83;3.20;;;7.80;98.00;;;;;;5052738;28;20794;-65
2023/03/16 09:28:40;;;;;;;4.60;2.27;;;7.90;98.00;;;;;;5052513;28;20857;-65
2023/03/16 09:31:07;;;;;;;4.83;2.60;;;8.10;98.00;;;;;;5052368;28;20818;-64
2023/03/16 09:33:36;;;;;;;5.53;2.47;;;8.20;98.00;;;;;;5052378;28;20572;-65
2023/03/16 09:36:06;;;;;;;4.47;2.50;;;8.40;98.00;;;;;;5052349;28;20463;-65
2023/03/16 09:38:34;;;;;;;3.40;2.20;;;8.60;98.00;;;;;;5034253;28;20467;-65
2023/03/16 09:41:07;;;;;;;5.97;2.70;;;8.80;98.00;;;;;;5052125;28;20456;-64
2023/03/16 09:43:57;;;;;;;5.37;3.00;;;8.90;98.00;;;;;;5052049;28;20492;-64
2023/03/16 09:46:27;;;;;;;4.17;2.73;;;9.20;98.00;;;;;;5052203;28;21110;-66
2023/03/16 09:48:55;;;;;;;4.17;2.37;;;9.60;98.00;;;;;;5051893;28;20943;-65
2023/03/16 09:51:37;;;;;;;2.73;2.00;;;9.80;98.00;;;;;;5034476;28;20506;-68
2023/03/16 09:54:13;;;;;;;3.83;2.43;;;9.80;98.00;;;;;;5034513;28;20491;-64
2023/03/16 09:56:43;;;;;;;9.07;3.77;;;9.80;98.00;;;;;;5052209;28;20466;-66
2023/03/16 09:59:16;;;;;;;4.10;2.10;;;9.70;98.00;;;;;;5034487;28;20476;-67
2023/03/16 10:01:57;;;;;;;5.20;2.80;;;9.60;98.00;;;;;;5052061;28;20983;-65
2023/03/16 10:04:40;;;;;;;5.70;2.77;;;9.70;98.00;;;;;;5052044;28;20895;-64
2023/03/16 10:07:24;;;;;;;3.90;2.23;;;9.90;98.00;;;;;;5052082;28;20456;-65
2023/03/16 10:09:57;;;;;;;6.00;3.27;;;9.90;98.00;;;;;;5051854;28;20455;-66
2023/03/16 10:12:30;;;;;;;5.33;2.83;;;10.10;98.00;;;;;;5051709;28;20500;-67
2023/03/16 10:15:04;;;;;;;3.20;2.10;;;10.20;98.00;;;;;;5051661;28;20525;-64
2023/03/16 10:17:37;;;;;;;4.37;2.20;;;10.30;98.00;;;;;;5052062;28;20561;-65
2023/03/16 10:20:07;;;;;;;3.23;2.23;;;10.40;98.00;;;;;;5052022;28;20461;-68
2023/03/16 10:22:39;;;;;;;6.27;2.40;;;10.40;98.00;;;;;;5034790;28;20972;-67
2023/03/16 10:25:15;;;;;;;7.20;2.17;;;10.50;98.00;;;;;;5052239;28;20479;-68
2023/03/16 10:27:44;;;;;;;3.60;2.40;;;10.60;98.00;;;;;;5035065;28;20814;-66
2023/03/16 10:30:23;;;;;;;5.10;2.67;;;10.70;98.00;;;;;;5051650;28;20457;-66
2023/03/16 10:32:51;;;;;;;4.43;2.30;;;10.80;98.00;;;;;;5051332;28;20560;-63
2023/03/16 10:35:31;;;;;;;9.60;3.97;;;10.80;98.00;;;;;;5051591;28;20461;-66
2023/03/16 10:37:59;;;;;;;5.57;2.63;;;10.90;98.00;;;;;;5051335;28;20788;-66
2023/03/16 10:40:36;;;;;;;3.07;2.10;;;10.90;98.00;;;;;;5051612;28;20455;-66
2023/03/16 10:43:08;;;;;;;6.73;2.60;;;11.00;98.00;;;;;;5051038;28;20471;-66
2023/03/16 10:45:37;;;;;;;2.40;1.90;;;11.00;98.00;;;;;;5051461;28;20520;-66
2023/03/16 10:48:09;;;;;;;7.43;2.67;;;11.00;98.00;;;;;;5051296;28;20516;-67
2023/03/16 10:50:36;;;;;;;4.30;2.43;;;11.00;98.00;;;;;;5033888;28;20517;-67
2023/03/16 10:53:05;;;;;;;4.50;2.13;;;10.90;98.00;;;;;;5033626;28;20926;-66
2023/03/16 10:55:42;;;;;;;4.17;2.00;;;11.00;98.00;;;;;;5051231;28;20453;-65
2023/03/16 10:58:09;;;;;;;3.30;1.90;;;11.20;98.00;;;;;;5051189;28;20458;-65
2023/03/16 11:00:42;;;;;;;4.53;2.90;;;11.30;98.00;;;;;;5051320;28;20461;-67
2023/03/16 11:03:23;;;;;;;3.50;2.47;;;11.40;98.00;;;;;;5051122;28;20540;-65
2023/03/16 11:05:59;;;;;;;3.17;2.03;;;11.60;98.00;;;;;;5032152;28;20524;-65
2023/03/16 11:08:32;;;;;;;6.20;2.50;;;11.70;98.00;;;;;;5031367;28;20458;-64
2023/03/16 11:11:07;;;;;;;5.40;2.53;;;11.90;98.00;;;;;;5030029;28;20546;-65
2023/03/16 11:13:36;;;;;;;4.07;2.30;;;12.10;97.30;;;;;;5030092;28;20486;-67
2023/03/16 11:16:17;;;;;;;3.40;1.87;;;12.20;97.80;;;;;;5031421;28;20467;-67
2023/03/16 11:18:47;;;;;;;5.57;2.93;;;12.50;96.90;;;;;;5031422;28;20568;-69
2023/03/16 11:21:21;;;;;;;4.67;2.80;;;12.80;97.50;;;;;;5031299;28;20574;-67
2023/03/16 11:23:55;;;;;;;3.37;2.47;;;12.90;96.20;;;;;;5037378;28;20537;-66
2023/03/16 11:26:28;;;;;;;3.63;2.40;;;13.40;95.50;;;;;;5054195;28;20458;-65
2023/03/16 11:29:02;;;;;;;4.87;2.40;;;13.80;94.10;;;;;;5054106;28;20479;-66
2023/03/16 11:31:41;;;;;;;4.40;2.30;;;14.00;93.00;;;;;;5053972;28;20453;-66
2023/03/16 11:34:16;;;;;;;6.57;2.70;;;14.30;92.30;;;;;;5054094;28;20493;-67
2023/03/16 11:36:50;;;;;;;3.10;1.97;;;14.40;91.10;;;;;;5053839;28;20451;-66
2023/03/16 11:39:31;;;;;;;2.97;2.30;;;14.70;92.40;;;;;;5035870;28;20456;-67
2023/03/16 11:42:13;;;;;;;3.00;2.30;;;15.00;91.20;;;;;;5053842;28;20533;-66
2023/03/16 11:44:45;;;;;;;3.90;2.23;;;15.20;87.60;;;;;;5053831;28;20461;-67
2023/03/16 11:47:32;;;;;;;4.10;2.37;;;15.30;88.60;;;;;;5036062;28;20482;-67
2023/03/16 11:50:05;;;;;;;3.20;2.50;;;15.50;88.70;;;;;;5053433;28;20507;-66
2023/03/16 11:52:46;;;;;;;4.57;2.50;;;15.60;87.60;;;;;;5053605;28;20468;-68
2023/03/16 11:55:29;;;;;;;6.20;2.87;;;15.70;86.60;;;;;;5053354;28;20492;-66
2023/03/16 11:58:11;;;;;;;4.00;2.33;;;15.80;84.80;;;;;;5053432;28;20947;-66
2023/03/16 12:00:52;;;;;;;2.87;2.07;;;16.00;85.90;;;;;;5053415;28;20465;-67
2023/03/16 12:03:57;;;;;;;3.60;2.20;;;16.30;84.20;;;;;;5036669;28;20548;-66
2023/03/16 12:06:37;;;;;;;2.73;1.83;;;16.50;85.20;;;;;;5031630;28;20518;-66
2023/03/16 12:09:38;;;;;;;3.10;2.03;;;16.50;85.60;;;;;;5053073;28;20969;-65
2023/03/16 12:12:21;;;;;;;3.40;2.10;;;16.70;84.50;;;;;;5053042;28;20473;-66
2023/03/16 12:14:54;;;;;;;3.80;2.20;;;16.80;83.30;;;;;;5053125;28;20520;-66
2023/03/16 12:17:25;;;;;;;2.80;2.10;;;17.00;82.00;;;;;;5052951;28;20464;-66
2023/03/16 12:19:58;;;;;;;8.67;2.20;;;16.90;83.40;;;;;;5052919;28;20469;-66
2023/03/16 12:22:29;;;;;;;4.80;2.50;;;17.00;82.40;;;;;;5053150;28;20461;-65
2023/03/16 12:24:56;;;;;;;5.33;2.60;;;17.10;82.00;;;;;;5035569;28;20516;-66
2023/03/16 12:27:30;;;;;;;3.73;2.70;;;17.10;82.00;;;;;;5053119;28;20467;-66
2023/03/16 12:30:14;;;;;;;4.57;2.60;;;17.40;82.30;;;;;;5053051;28;20504;-66
2023/03/16 12:32:46;;;;;;;5.60;3.00;;;17.50;79.70;;;;;;5052365;28;20454;-65
2023/03/16 12:35:24;;;;;;;8.53;2.40;;;17.60;79.80;;;;;;5051876;28;20897;-66
2023/03/16 12:38:06;;;;;;;5.93;2.30;;;17.50;81.00;;;;;;5052760;28;20833;-67
2023/03/16 12:40:38;;;;;;;6.13;2.43;;;17.50;79.10;;;;;;5036063;28;20453;-67
2023/03/16 12:43:27;;;;;;;3.70;2.43;;;17.80;80.10;;;;;;5052888;28;20493;-67
2023/03/16 12:46:03;;;;;;;3.20;2.37;;;18.00;80.80;;;;;;5052629;28;20453;-66
2023/03/16 12:48:32;;;;;;;3.37;2.63;;;18.10;79.20;;;;;;5052458;28;20930;-64
2023/03/16 12:51:02;;;;;;;4.03;2.47;;;18.20;78.10;;;;;;5034722;28;20460;-66
2023/03/16 12:53:43;;;;;;;4.03;2.63;;;18.30;77.50;;;;;;5051882;28;20523;-66
2023/03/16 12:56:12;;;;;;;6.03;2.50;;;18.40;76.60;;;;;;5052324;28;20544;-67
2023/03/16 12:58:47;;;;;;;4.80;2.73;;;18.60;77.20;;;;;;5052138;28;20449;-67
2023/03/16 13:01:18;;;;;;;4.53;2.23;;;18.50;76.50;;;;;;5052321;28;20484;-67
2023/03/16 13:03:49;;;;;;;4.30;2.43;;;18.30;75.80;;;;;;5051951;28;20453;-68
2023/03/16 13:06:22;;;;;;;3.73;2.00;;;18.40;75.40;;;;;;5052033;28;20543;-65
2023/03/16 13:08:53;;;;;;;4.00;2.63;;;18.70;75.80;;;;;;5034789;28;20478;-67
2023/03/16 13:11:21;;;;;;;4.80;2.20;;;18.90;75.90;;;;;;5052729;28;20454;-66
2023/03/16 13:13:51;;;;;;;6.70;2.60;;;18.90;73.70;;;;;;5052391;28;20971;-68